ENRO

Røros Airport

Røros, Norway
METAR ENRO 181420Z AUTO 19008KT 150V240 9999NDV SCT027/// BKN043/// BKN072/// 13/09 Q0999
Observed Flight Rules
Aug-18 @ 14:20 UTC (33 minutes ago)
Wind Clouds
190° at 8 knots
  • Scattered at 2,700' AGL
  • Broken at 4,300' AGL
  • Broken at 7,200' AGL
Temperatures Readings
Current 13°C / 55°F
Dewpoint 9°C / 48°F
Humidity 77%
Altimeter 29.5" Hg
Pressure 999 hPa
Elevation 626
METAR ENRO 181420Z AUTO 19008KT 150V240 9999NDV SCT027/// BKN043/// BKN072/// 13/09 Q0999
Observed Flight Rules
Aug-18 @ 14:20 UTC
(33 minutes ago)
Wind
190° at 8 knots
Clouds
  • Scattered at 2,700' AGL
  • Broken at 4,300' AGL
  • Broken at 7,200' AGL
Temperature Dewpoint
13°C / 55°F 9°C / 48°F
Humidity Altimeter Pressure
77% 29.5" Hg 999 hPa